Monrovia, Indiana
Current Conditions -  °F | °C
As of 2:54 PM on Wednesday 28 Jan 2015 (Local Time) from KIND Reporting Station
Broken Clouds Broken Clouds  
Wind Chill: 23°   Ceiling: 25000
Heat Index: 33°   Visibility: 10mi
Dew Point: 15°   Wind: 16mph
Humidity: 48%   Direction: 130°SE
Pressure: 30.2"   Gusts: NA
Location:  39.58°N, 86.48°W
Report Text: KIND 281954Z 13014KT 10SM BKN250 01/M09 A3020 RMK AO2 SLP236 T00061094
Loading
Personal Weather Stations






























Interactive Weather Map New forecast layout! Learn more

10-Day Weather Forecast

Advertisements
Track Severe Weather on mobile